Time;durP1;ratioP1;P1;durP2;ratioP2;P2;SDS_P1;SDS_P2;PMS_P1;PMS_P2;Temp;Humidity;BMP_temperature;BMP_pressure;BME280_temperature;BME280_humidity;BME280_pressure;Samples;Min_cycle;Max_cycle;Signal;HPM_P1;HPM_P2
2023/07/12 00:01:21;;;;;;;10.70;2.77;;;19.00;1.00;;;;;;4958075;28;20279;-66
2023/07/12 00:03:50;;;;;;;6.77;2.03;;;18.60;1.00;;;;;;4951759;28;20230;-65
2023/07/12 00:06:20;;;;;;;3.77;2.07;;;18.40;1.00;;;;;;4968915;28;20257;-65
2023/07/12 00:08:48;;;;;;;3.90;2.13;;;18.10;19.50;;;;;;4969399;28;20188;-65
2023/07/12 00:11:21;;;;;;;4.60;2.10;;;17.90;40.60;;;;;;4964491;28;20196;-65
2023/07/12 00:13:50;;;;;;;3.23;2.00;;;17.70;74.10;;;;;;4965096;28;20202;-66
2023/07/12 00:16:23;;;;;;;5.90;2.20;;;17.50;73.50;;;;;;4967863;28;20828;-65
2023/07/12 00:18:52;;;;;;;7.43;2.20;;;17.40;94.20;;;;;;4965697;28;20203;-65
2023/07/12 00:21:23;;;;;;;3.43;2.20;;;17.30;99.20;;;;;;4970402;28;20642;-65
2023/07/12 00:23:52;;;;;;;4.63;2.33;;;17.20;99.90;;;;;;4969540;28;20248;-66
2023/07/12 00:26:25;;;;;;;6.50;2.30;;;17.10;99.90;;;;;;4968352;28;20251;-65
2023/07/12 00:28:55;;;;;;;4.10;2.30;;;17.00;99.90;;;;;;4961652;28;20192;-65
2023/07/12 00:31:24;;;;;;;4.03;2.27;;;16.90;99.90;;;;;;4959473;28;20196;-65
2023/07/12 00:33:52;;;;;;;6.43;2.37;;;16.80;99.90;;;;;;4958423;28;20257;-66
2023/07/12 00:36:23;;;;;;;4.97;2.20;;;16.80;99.90;;;;;;4955774;28;20196;-66
2023/07/12 00:38:52;;;;;;;5.43;2.80;;;16.70;99.90;;;;;;4965002;28;20202;-65
2023/07/12 00:41:30;;;;;;;2.33;2.10;;;16.70;99.90;;;;;;4964466;28;20230;-65
2023/07/12 00:44:04;;;;;;;7.60;2.93;;;16.70;99.90;;;;;;4957764;28;20201;-65
2023/07/12 00:46:37;;;;;;;8.23;2.63;;;16.70;99.90;;;;;;4958807;28;20209;-65
2023/07/12 00:49:05;;;;;;;5.07;2.47;;;16.70;99.90;;;;;;4955399;28;20785;-66
2023/07/12 00:51:46;;;;;;;2.93;2.60;;;16.60;99.90;;;;;;4971559;28;20246;-65
2023/07/12 00:54:17;;;;;;;4.97;2.63;;;16.60;99.90;;;;;;4964543;28;20235;-66
2023/07/12 00:56:47;;;;;;;5.00;2.50;;;16.50;99.90;;;;;;4963446;28;20555;-67
2023/07/12 00:59:20;;;;;;;2.53;2.23;;;16.50;99.90;;;;;;4956674;28;20196;-66
2023/07/12 01:01:51;;;;;;;5.63;2.60;;;16.40;99.90;;;;;;4957618;28;20198;-65
2023/07/12 01:04:23;;;;;;;4.93;2.53;;;16.40;99.90;;;;;;4951300;28;20196;-66
2023/07/12 01:06:52;;;;;;;5.60;2.77;;;16.40;99.90;;;;;;4957068;28;20189;-65
2023/07/12 01:09:21;;;;;;;5.30;2.73;;;16.40;99.90;;;;;;4957560;28;20253;-66
2023/07/12 01:11:51;;;;;;;2.97;2.60;;;16.40;99.90;;;;;;4959241;28;20207;-66
2023/07/12 01:14:19;;;;;;;7.10;2.70;;;16.40;99.90;;;;;;4957616;28;20196;-66
2023/07/12 01:16:52;;;;;;;5.73;2.53;;;16.30;99.90;;;;;;4965002;28;20193;-66
2023/07/12 01:19:20;;;;;;;8.10;2.80;;;16.30;99.90;;;;;;4963283;28;20203;-66
2023/07/12 01:21:53;;;;;;;5.20;3.00;;;16.20;99.90;;;;;;4958254;28;20200;-66
2023/07/12 01:24:23;;;;;;;6.33;2.67;;;16.20;99.90;;;;;;4965590;28;20197;-66
2023/07/12 01:26:56;;;;;;;6.20;2.80;;;16.20;99.90;;;;;;4968384;28;21088;-66
2023/07/12 01:29:29;;;;;;;8.17;2.80;;;16.20;99.90;;;;;;4970756;28;20654;-66
2023/07/12 01:31:57;;;;;;;6.77;3.20;;;16.10;99.90;;;;;;4971354;28;20204;-66
2023/07/12 01:34:26;;;;;;;7.20;2.70;;;16.00;99.90;;;;;;4967767;28;20205;-66
2023/07/12 01:36:57;;;;;;;4.80;2.43;;;16.00;99.90;;;;;;4960296;28;20192;-66
2023/07/12 01:39:25;;;;;;;5.93;2.50;;;16.00;99.90;;;;;;4960107;28;20197;-66
2023/07/12 01:41:54;;;;;;;7.97;2.97;;;15.90;99.90;;;;;;4940632;28;20219;-65
2023/07/12 01:44:22;;;;;;;6.07;2.50;;;15.90;99.90;;;;;;4960080;28;20208;-66
2023/07/12 01:46:51;;;;;;;3.70;2.67;;;15.90;99.90;;;;;;4967485;28;20208;-66
2023/07/12 01:49:19;;;;;;;5.93;2.80;;;15.90;99.90;;;;;;4963672;28;20185;-66
2023/07/12 01:51:48;;;;;;;5.03;2.93;;;15.80;99.90;;;;;;4962429;28;20596;-66
2023/07/12 01:54:18;;;;;;;4.67;2.90;;;15.80;99.90;;;;;;4965717;28;20693;-67
2023/07/12 01:56:46;;;;;;;7.37;2.90;;;15.70;99.90;;;;;;4965361;28;20206;-66
2023/07/12 01:59:14;;;;;;;8.73;3.00;;;15.70;99.90;;;;;;4962519;28;20216;-67
2023/07/12 02:01:43;;;;;;;5.17;2.80;;;15.70;99.90;;;;;;4960692;28;20205;-66
2023/07/12 02:04:11;;;;;;;6.20;3.03;;;15.70;99.90;;;;;;4968341;28;20207;-66
2023/07/12 02:06:39;;;;;;;7.80;3.13;;;15.70;99.90;;;;;;4966976;28;20209;-66
2023/07/12 02:09:11;;;;;;;9.27;3.27;;;15.70;99.90;;;;;;4959902;28;20296;-66
2023/07/12 02:11:40;;;;;;;6.33;3.40;;;15.80;99.90;;;;;;4956269;28;20200;-66
2023/07/12 02:14:09;;;;;;;6.17;3.30;;;15.80;99.90;;;;;;4965326;28;20609;-67
2023/07/12 02:16:37;;;;;;;8.17;3.60;;;15.80;99.90;;;;;;4960658;28;20201;-66
2023/07/12 02:19:05;;;;;;;8.00;3.70;;;15.80;99.90;;;;;;4957980;28;20212;-66
2023/07/12 02:21:33;;;;;;;8.53;3.47;;;15.80;99.90;;;;;;4957571;28;20416;-66
2023/07/12 02:24:02;;;;;;;6.73;3.30;;;15.90;99.90;;;;;;4961780;28;20252;-66
2023/07/12 02:26:31;;;;;;;8.30;3.30;;;15.90;99.90;;;;;;4958593;28;20199;-66
2023/07/12 02:29:00;;;;;;;10.30;3.67;;;15.90;99.90;;;;;;4961525;28;20212;-66
2023/07/12 02:31:31;;;;;;;6.87;3.03;;;15.90;99.90;;;;;;4946754;28;20617;-66
2023/07/12 02:34:00;;;;;;;5.87;3.23;;;15.90;99.90;;;;;;4955932;28;20205;-66
2023/07/12 02:36:28;;;;;;;4.33;2.97;;;15.90;99.90;;;;;;4963139;28;20699;-67
2023/07/12 02:38:56;;;;;;;6.93;3.43;;;15.90;99.90;;;;;;4966003;28;20253;-67
2023/07/12 02:41:24;;;;;;;9.37;3.70;;;15.90;99.90;;;;;;4968052;28;20211;-67
2023/07/12 02:43:53;;;;;;;10.00;3.53;;;15.90;99.90;;;;;;4961686;28;20218;-67
2023/07/12 02:46:22;;;;;;;6.13;3.27;;;15.90;99.90;;;;;;4965273;28;20210;-66
2023/07/12 02:48:51;;;;;;;10.17;3.43;;;15.90;99.90;;;;;;4969972;28;20254;-67
2023/07/12 02:51:19;;;;;;;10.20;3.60;;;15.80;99.90;;;;;;4962224;28;20648;-66
2023/07/12 02:53:47;;;;;;;5.90;3.40;;;15.80;99.90;;;;;;4965465;28;20199;-66
2023/07/12 02:56:16;;;;;;;8.97;3.50;;;15.70;99.90;;;;;;4962069;28;20208;-68
2023/07/12 02:58:44;;;;;;;9.20;4.10;;;15.80;99.90;;;;;;4960215;28;20221;-67
2023/07/12 03:01:12;;;;;;;11.87;3.60;;;15.80;99.90;;;;;;4952581;28;20209;-67
2023/07/12 03:03:42;;;;;;;5.33;3.63;;;15.80;99.90;;;;;;4957864;28;20186;-67
2023/07/12 03:06:12;;;;;;;9.80;3.90;;;15.80;99.90;;;;;;4954149;28;20200;-67
2023/07/12 03:08:40;;;;;;;7.10;3.70;;;15.80;99.90;;;;;;4963559;28;20648;-67
2023/07/12 03:11:12;;;;;;;7.57;4.20;;;15.80;99.90;;;;;;4958814;28;20675;-69
2023/07/12 03:13:40;;;;;;;9.03;3.70;;;15.80;99.90;;;;;;4965496;28;20192;-67
2023/07/12 03:16:10;;;;;;;6.33;3.73;;;15.80;99.90;;;;;;4962390;28;20670;-68
2023/07/12 03:18:39;;;;;;;8.70;4.60;;;15.70;99.90;;;;;;4961135;28;20226;-66
2023/07/12 03:21:10;;;;;;;7.70;4.50;;;15.70;99.90;;;;;;4970867;28;20208;-66
2023/07/12 03:23:39;;;;;;;13.50;4.20;;;15.70;99.90;;;;;;4941282;28;20207;-66
2023/07/12 03:26:07;;;;;;;10.60;4.33;;;15.70;99.90;;;;;;4954228;28;20201;-67
2023/07/12 03:28:36;;;;;;;7.80;4.03;;;15.70;99.90;;;;;;4946502;28;20188;-67
2023/07/12 03:31:07;;;;;;;10.43;4.40;;;15.60;99.90;;;;;;4958515;28;20199;-66
2023/07/12 03:33:36;;;;;;;10.73;4.40;;;15.70;99.90;;;;;;4956655;28;20208;-67
2023/07/12 03:36:05;;;;;;;10.50;4.37;;;15.70;99.90;;;;;;4958082;28;20193;-67
2023/07/12 03:38:35;;;;;;;10.20;4.80;;;15.70;99.90;;;;;;4956836;28;20732;-67
2023/07/12 03:41:05;;;;;;;9.93;4.70;;;15.70;99.90;;;;;;4959566;28;20245;-67
2023/07/12 03:43:34;;;;;;;11.90;4.63;;;15.80;99.90;;;;;;4958827;28;20207;-67
2023/07/12 03:46:03;;;;;;;11.17;4.47;;;15.80;99.90;;;;;;4944375;28;20201;-67
2023/07/12 03:48:32;;;;;;;11.07;4.87;;;15.80;99.90;;;;;;4957939;28;20281;-67
2023/07/12 03:51:01;;;;;;;11.07;4.63;;;15.90;99.90;;;;;;4962405;28;20215;-67
2023/07/12 03:53:30;;;;;;;9.47;4.70;;;15.90;99.90;;;;;;4966555;28;20649;-67
2023/07/12 03:56:01;;;;;;;11.27;4.67;;;15.90;99.90;;;;;;4971329;28;20227;-67
2023/07/12 03:58:32;;;;;;;11.10;4.70;;;15.90;99.90;;;;;;4969600;28;20204;-67
2023/07/12 04:01:03;;;;;;;10.80;4.97;;;16.00;99.90;;;;;;4955026;28;20323;-67
2023/07/12 04:03:33;;;;;;;12.47;6.00;;;16.00;99.90;;;;;;4971652;28;20195;-67
2023/07/12 04:06:03;;;;;;;10.87;5.20;;;16.00;99.90;;;;;;4971617;28;20862;-67
2023/07/12 04:08:32;;;;;;;14.77;6.10;;;16.00;99.90;;;;;;4948146;28;20635;-67
2023/07/12 04:11:03;;;;;;;7.97;5.70;;;16.00;99.90;;;;;;4966692;28;20197;-67
2023/07/12 04:13:31;;;;;;;11.93;5.33;;;16.00;99.90;;;;;;4959953;28;20275;-67
2023/07/12 04:16:02;;;;;;;11.13;6.33;;;16.00;99.90;;;;;;4964214;28;20209;-67
2023/07/12 04:18:30;;;;;;;10.57;5.40;;;16.00;99.90;;;;;;4961363;28;20211;-67
2023/07/12 04:21:05;;;;;;;9.70;5.47;;;16.00;99.90;;;;;;4961936;28;20275;-67
2023/07/12 04:23:34;;;;;;;6.23;5.13;;;16.10;99.90;;;;;;4964623;28;20302;-67
2023/07/12 04:26:05;;;;;;;9.93;5.33;;;16.10;99.90;;;;;;4970708;28;20192;-67
2023/07/12 04:28:39;;;;;;;14.20;4.50;;;16.10;99.90;;;;;;4972417;28;20213;-67
2023/07/12 04:31:10;;;;;;;12.20;4.60;;;16.10;99.90;;;;;;4954085;28;20203;-67
2023/07/12 04:33:40;;;;;;;7.80;4.03;;;16.20;99.90;;;;;;4965374;28;20191;-66
2023/07/12 04:36:11;;;;;;;5.83;4.20;;;16.20;99.90;;;;;;4971565;28;20199;-69
2023/07/12 04:38:39;;;;;;;9.53;4.10;;;16.30;99.90;;;;;;4970813;28;20609;-66
2023/07/12 04:41:09;;;;;;;13.50;4.70;;;16.30;99.90;;;;;;4968177;28;20566;-66
2023/07/12 04:43:38;;;;;;;10.77;4.27;;;16.30;99.90;;;;;;4957853;28;20248;-66
2023/07/12 04:46:06;;;;;;;8.53;4.90;;;16.40;99.90;;;;;;4971560;28;20200;-67
2023/07/12 04:48:35;;;;;;;11.97;4.30;;;16.40;99.90;;;;;;4964449;28;20612;-67
2023/07/12 04:51:04;;;;;;;10.57;4.20;;;16.40;99.90;;;;;;4963468;28;20252;-67
2023/07/12 04:53:33;;;;;;;8.17;3.87;;;16.50;99.90;;;;;;4965645;28;20207;-67
2023/07/12 04:56:02;;;;;;;8.67;3.50;;;16.60;99.90;;;;;;4967152;28;20294;-66
2023/07/12 04:58:32;;;;;;;10.27;4.03;;;16.60;99.90;;;;;;4958753;28;20196;-66
2023/07/12 05:01:02;;;;;;;15.37;4.20;;;16.60;99.90;;;;;;4956848;28;20239;-67
2023/07/12 05:03:31;;;;;;;10.47;4.10;;;16.60;99.90;;;;;;4955110;28;20294;-67
2023/07/12 05:06:00;;;;;;;10.47;3.20;;;16.60;99.90;;;;;;4958860;28;20198;-67
2023/07/12 05:08:44;;;;;;;10.07;3.63;;;16.70;99.90;;;;;;4961868;28;20277;-68
2023/07/12 05:11:13;;;;;;;10.07;3.83;;;16.70;99.90;;;;;;4957830;28;20281;-66
2023/07/12 05:13:43;;;;;;;8.10;3.33;;;16.80;99.90;;;;;;4964006;28;20209;-67
2023/07/12 05:16:12;;;;;;;4.10;3.00;;;16.90;99.90;;;;;;4961956;28;20201;-67
2023/07/12 05:18:40;;;;;;;5.13;3.13;;;17.00;99.90;;;;;;4959422;28;20294;-67
2023/07/12 05:21:09;;;;;;;9.67;3.77;;;17.00;99.90;;;;;;4960711;28;20542;-67
2023/07/12 05:23:39;;;;;;;10.83;3.70;;;17.10;99.90;;;;;;4959575;28;20632;-67
2023/07/12 05:26:11;;;;;;;7.23;3.40;;;17.20;99.90;;;;;;4969431;28;20228;-67
2023/07/12 05:28:40;;;;;;;7.83;3.17;;;17.30;99.90;;;;;;4969842;28;20696;-67
2023/07/12 05:31:11;;;;;;;9.80;3.07;;;17.30;99.90;;;;;;4958417;28;20727;-67
2023/07/12 05:33:43;;;;;;;8.60;2.80;;;17.30;99.90;;;;;;4947445;28;20290;-67
2023/07/12 05:36:12;;;;;;;8.77;3.07;;;17.40;99.90;;;;;;4957387;28;20243;-67
2023/07/12 05:38:40;;;;;;;7.93;3.33;;;17.40;99.90;;;;;;4954513;28;20200;-67
2023/07/12 05:41:08;;;;;;;11.03;2.97;;;17.60;99.90;;;;;;4955419;28;20220;-67
2023/07/12 05:43:39;;;;;;;8.43;3.00;;;17.70;99.90;;;;;;4969906;28;20214;-67
2023/07/12 05:46:09;;;;;;;6.00;3.07;;;17.70;99.90;;;;;;4971779;28;20192;-66
2023/07/12 05:48:38;;;;;;;7.90;3.20;;;17.70;99.90;;;;;;4962207;28;20219;-67
2023/07/12 05:51:07;;;;;;;3.60;3.00;;;17.80;99.90;;;;;;4962587;28;20196;-67
2023/07/12 05:53:36;;;;;;;9.27;2.93;;;17.80;99.90;;;;;;4962115;28;20306;-67
2023/07/12 05:56:06;;;;;;;5.77;2.93;;;17.70;99.90;;;;;;4955913;28;20234;-67
2023/07/12 05:58:35;;;;;;;10.27;3.37;;;17.80;99.90;;;;;;4960627;28;20192;-67
2023/07/12 06:01:05;;;;;;;7.60;2.97;;;17.70;99.90;;;;;;4954041;28;20246;-67
2023/07/12 06:03:35;;;;;;;9.40;3.47;;;17.80;99.90;;;;;;4964944;28;20196;-66
2023/07/12 06:06:07;;;;;;;12.00;3.40;;;17.90;99.90;;;;;;4964598;28;20269;-66
2023/07/12 06:08:35;;;;;;;8.03;3.03;;;18.00;99.90;;;;;;4965242;28;20210;-66
2023/07/12 06:11:04;;;;;;;9.23;3.10;;;18.20;99.90;;;;;;4945461;28;20203;-65
2023/07/12 06:13:32;;;;;;;6.13;2.70;;;18.20;99.90;;;;;;4969487;28;20269;-66
2023/07/12 06:16:03;;;;;;;13.83;3.23;;;18.40;99.90;;;;;;4957280;28;20203;-66
2023/07/12 06:18:31;;;;;;;8.33;2.87;;;18.60;99.90;;;;;;4954032;28;20204;-66
2023/07/12 06:21:02;;;;;;;8.27;3.47;;;18.80;98.80;;;;;;4954578;28;20205;-65
2023/07/12 06:23:31;;;;;;;6.23;2.83;;;19.00;99.70;;;;;;4957462;28;20218;-65
2023/07/12 06:26:00;;;;;;;10.67;3.10;;;19.00;99.50;;;;;;4968464;28;20192;-66
2023/07/12 06:28:28;;;;;;;10.90;2.87;;;19.00;95.30;;;;;;4947233;28;20828;-65
2023/07/12 06:30:57;;;;;;;8.77;3.10;;;19.00;90.10;;;;;;4947340;28;20216;-65
2023/07/12 06:33:25;;;;;;;9.90;2.90;;;18.80;93.80;;;;;;4971627;28;20195;-65
2023/07/12 06:35:54;;;;;;;8.63;2.93;;;18.60;96.70;;;;;;4953383;28;20666;-65
2023/07/12 06:38:23;;;;;;;7.60;2.93;;;18.70;99.90;;;;;;4964193;28;20210;-66
2023/07/12 06:40:53;;;;;;;7.53;2.63;;;18.80;97.00;;;;;;4970006;28;20322;-66
2023/07/12 06:43:24;;;;;;;6.87;2.67;;;18.60;95.50;;;;;;4969196;28;20200;-65
2023/07/12 06:45:55;;;;;;;8.07;2.83;;;18.50;99.90;;;;;;4970795;28;20238;-65
2023/07/12 06:48:23;;;;;;;9.30;2.93;;;18.60;99.50;;;;;;4966724;28;20199;-65
2023/07/12 06:50:52;;;;;;;7.00;3.23;;;18.60;93.50;;;;;;4959841;28;20210;-66
2023/07/12 06:53:21;;;;;;;8.67;3.17;;;18.60;95.00;;;;;;4956855;28;20212;-66
2023/07/12 06:55:50;;;;;;;8.30;2.60;;;18.70;93.00;;;;;;4958833;28;20232;-66
2023/07/12 06:58:18;;;;;;;6.47;2.60;;;18.90;92.40;;;;;;4944244;28;20197;-66
2023/07/12 07:00:48;;;;;;;8.97;2.70;;;19.10;94.00;;;;;;4945015;28;20232;-66
2023/07/12 07:03:16;;;;;;;7.17;2.33;;;19.40;81.50;;;;;;4949293;28;20197;-66
2023/07/12 07:05:46;;;;;;;6.27;2.87;;;19.70;66.30;;;;;;4970630;28;20635;-66
2023/07/12 07:08:16;;;;;;;5.30;2.40;;;19.80;69.10;;;;;;4962988;28;20204;-66
2023/07/12 07:10:49;;;;;;;11.07;2.87;;;19.90;68.30;;;;;;4955967;28;20242;-66
2023/07/12 07:13:21;;;;;;;7.17;2.93;;;19.90;66.40;;;;;;4958326;28;20193;-66
2023/07/12 07:15:50;;;;;;;11.70;2.60;;;19.90;68.60;;;;;;4965495;28;20291;-65
2023/07/12 07:18:19;;;;;;;6.07;2.50;;;19.80;52.60;;;;;;4941139;28;20207;-66
2023/07/12 07:20:47;;;;;;;7.47;2.57;;;19.60;66.80;;;;;;4956315;28;20243;-66
2023/07/12 07:23:16;;;;;;;12.27;2.83;;;19.60;73.70;;;;;;4958165;28;20200;-65
2023/07/12 07:25:44;;;;;;;10.73;2.67;;;19.50;66.30;;;;;;4943902;28;20188;-65
2023/07/12 07:28:12;;;;;;;9.30;2.93;;;19.30;69.80;;;;;;4952609;28;20582;-65
2023/07/12 07:30:42;;;;;;;6.73;2.47;;;19.20;81.20;;;;;;4951227;28;20195;-65
2023/07/12 07:33:10;;;;;;;5.50;2.40;;;19.40;83.00;;;;;;4938570;28;20208;-65
2023/07/12 07:35:39;;;;;;;11.67;3.00;;;19.50;69.20;;;;;;4953962;28;20199;-65
2023/07/12 07:38:07;;;;;;;9.00;2.40;;;19.40;61.90;;;;;;4942644;29;20200;-65
2023/07/12 07:40:40;;;;;;;9.23;2.77;;;19.60;70.90;;;;;;4958010;28;20222;-66
2023/07/12 07:43:08;;;;;;;9.07;2.40;;;20.00;56.80;;;;;;4967994;28;20197;-66
2023/07/12 07:45:37;;;;;;;8.43;2.50;;;20.00;35.70;;;;;;4938316;29;20215;-66
2023/07/12 07:48:07;;;;;;;12.60;2.70;;;19.90;39.90;;;;;;4967177;28;20200;-66
2023/07/12 07:50:35;;;;;;;9.97;2.57;;;19.70;44.60;;;;;;4974039;28;20204;-66
2023/07/12 07:53:04;;;;;;;11.27;2.47;;;19.60;61.90;;;;;;4967980;28;20206;-66
2023/07/12 07:55:32;;;;;;;6.90;2.77;;;19.80;75.00;;;;;;4970954;28;20475;-67
2023/07/12 07:58:00;;;;;;;10.00;2.50;;;20.90;10.90;;;;;;4968823;28;20223;-65
2023/07/12 08:00:29;;;;;;;6.80;2.30;;;21.40;1.00;;;;;;4972005;28;20192;-66
2023/07/12 08:02:57;;;;;;;7.40;2.57;;;21.10;1.00;;;;;;4964613;28;20200;-65
2023/07/12 08:05:27;;;;;;;8.20;2.30;;;20.70;1.00;;;;;;4963517;28;20543;-66
2023/07/12 08:07:55;;;;;;;5.00;2.20;;;20.60;1.00;;;;;;4957926;28;20200;-66
2023/07/12 08:10:24;;;;;;;9.80;2.53;;;21.40;1.00;;;;;;4969643;28;20250;-66
2023/07/12 08:12:55;;;;;;;9.90;2.90;;;22.00;1.00;;;;;;4970155;28;20196;-66
2023/07/12 08:15:24;;;;;;;4.10;2.10;;;22.40;1.00;;;;;;4961798;28;20203;-66
2023/07/12 08:17:53;;;;;;;7.27;2.00;;;22.40;1.00;;;;;;4960331;28;20209;-66
2023/07/12 08:20:22;;;;;;;4.20;2.33;;;21.80;1.00;;;;;;4940497;29;20213;-65
2023/07/12 08:22:53;;;;;;;5.37;1.70;;;21.60;1.00;;;;;;4953662;28;20259;-65
2023/07/12 08:25:21;;;;;;;7.03;2.10;;;22.10;1.00;;;;;;4960835;28;20573;-65
2023/07/12 08:27:49;;;;;;;4.73;2.10;;;23.20;1.00;;;;;;4959242;28;20199;-65
2023/07/12 08:30:18;;;;;;;4.93;2.10;;;24.30;1.00;;;;;;4961596;28;20199;-66
2023/07/12 08:32:46;;;;;;;4.80;2.13;;;24.30;99.90;;;;;;4960632;28;20509;-65
2023/07/12 08:35:14;;;;;;;6.97;2.10;;;24.20;99.90;;;;;;4959141;28;20215;-65
2023/07/12 08:37:43;;;;;;;5.67;2.10;;;23.60;99.90;;;;;;4959078;28;20211;-66
2023/07/12 08:40:15;;;;;;;8.53;2.20;;;23.00;1.00;;;;;;4956875;28;20200;-66
2023/07/12 08:42:46;;;;;;;8.00;2.20;;;22.20;1.00;;;;;;4969820;28;20221;-65
2023/07/12 08:45:23;;;;;;;5.40;2.27;;;21.70;1.00;;;;;;4962989;28;20201;-65
2023/07/12 08:47:57;;;;;;;9.63;2.30;;;21.40;1.00;;;;;;4963980;28;20225;-65
2023/07/12 08:50:29;;;;;;;6.20;2.30;;;21.90;1.00;;;;;;4958077;28;20667;-66
2023/07/12 08:52:57;;;;;;;5.77;2.00;;;23.30;1.00;;;;;;4970086;28;20196;-66
2023/07/12 08:55:28;;;;;;;5.47;1.80;;;24.00;1.00;;;;;;4956898;28;20242;-66
2023/07/12 08:58:02;;;;;;;6.80;1.98;;;24.90;99.90;;;;;;4962031;28;20203;-66
2023/07/12 09:00:34;;;;;;;7.50;1.93;;;25.00;1.00;;;;;;4953873;28;20200;-65
2023/07/12 09:03:02;;;;;;;4.60;2.27;;;24.10;1.00;;;;;;4964934;28;20329;-65
2023/07/12 09:05:32;;;;;;;8.40;2.00;;;23.50;99.90;;;;;;4958311;28;20198;-64
2023/07/12 09:08:11;;;;;;;6.50;2.10;;;22.80;1.00;;;;;;4957079;28;20197;-65
2023/07/12 09:10:48;;;;;;;5.83;1.93;;;22.40;1.00;;;;;;4941680;28;20195;-65
2023/07/12 09:13:17;;;;;;;3.33;1.90;;;22.00;1.00;;;;;;4953389;28;20198;-65
2023/07/12 09:15:48;;;;;;;8.60;2.17;;;22.80;1.00;;;;;;4950958;28;20270;-65
2023/07/12 09:18:29;;;;;;;6.30;1.90;;;24.00;99.90;;;;;;4962753;28;20195;-65
2023/07/12 09:21:00;;;;;;;6.63;2.20;;;24.50;1.00;;;;;;4965976;28;20199;-65
2023/07/12 09:23:37;;;;;;;5.00;2.20;;;25.20;1.00;;;;;;4959861;28;20232;-65
2023/07/12 09:26:12;;;;;;;6.27;1.90;;;25.10;1.00;;;;;;4969511;28;20597;-65
2023/07/12 09:28:41;;;;;;;5.45;1.63;;;25.50;1.00;;;;;;4970127;28;20239;-65
2023/07/12 09:31:14;;;;;;;4.05;1.90;;;26.40;99.90;;;;;;4968087;28;20190;-65
2023/07/12 09:33:48;;;;;;;4.65;2.05;;;27.60;1.00;;;;;;4962339;28;20233;-65
2023/07/12 09:36:17;;;;;;;7.05;1.80;;;27.80;99.90;;;;;;4965234;28;20191;-65
2023/07/12 09:38:47;;;;;;;3.67;1.70;;;27.10;1.00;;;;;;4959745;28;20682;-65
2023/07/12 09:41:24;;;;;;;4.32;1.55;;;27.00;99.90;;;;;;4968809;28;20236;-64
2023/07/12 09:43:56;;;;;;;1.83;1.55;;;27.40;1.00;;;;;;4963362;28;20565;-65
2023/07/12 09:46:36;;;;;;;7.32;1.98;;;28.00;1.00;;;;;;4966516;28;20211;-65
2023/07/12 09:49:12;;;;;;;5.45;2.20;;;28.50;1.00;;;;;;4966970;28;20194;-65
2023/07/12 09:51:49;;;;;;;2.38;1.58;;;28.40;99.90;;;;;;4958113;28;20187;-65
2023/07/12 09:54:28;;;;;;;4.07;1.30;;;28.40;1.00;;;;;;4964332;28;20325;-65
2023/07/12 09:57:03;;;;;;;3.08;1.88;;;28.40;1.00;;;;;;4961684;28;20209;-65
2023/07/12 09:59:39;;;;;;;4.10;1.60;;;28.40;99.90;;;;;;4959637;28;20199;-66
2023/07/12 10:02:22;;;;;;;3.25;1.35;;;28.70;99.90;;;;;;4953366;28;20275;-65
2023/07/12 10:04:55;;;;;;;3.38;1.52;;;28.70;1.00;;;;;;4949709;28;20631;-65
2023/07/12 10:07:35;;;;;;;1.70;1.35;;;29.00;99.90;;;;;;4938512;28;20197;-66
2023/07/12 10:10:09;;;;;;;2.80;1.63;;;28.50;1.00;;;;;;4962684;28;20195;-65
2023/07/12 10:12:45;;;;;;;1.75;1.38;;;28.10;99.90;;;;;;4953480;28;20204;-65
2023/07/12 10:15:15;;;;;;;5.15;1.40;;;28.30;1.00;;;;;;4957316;28;20184;-65
2023/07/12 10:17:45;;;;;;;2.00;1.52;;;28.90;99.90;;;;;;4961822;28;20195;-65
2023/07/12 10:20:18;;;;;;;2.25;1.50;;;29.10;99.90;;;;;;4941050;29;20196;-65
2023/07/12 10:22:47;;;;;;;2.42;1.65;;;28.60;1.00;;;;;;4957336;28;20219;-66
2023/07/12 10:25:23;;;;;;;4.55;1.52;;;28.90;1.00;;;;;;4961170;28;20195;-66
2023/07/12 10:27:59;;;;;;;2.78;1.48;;;29.00;1.00;;;;;;4968324;28;20534;-65
2023/07/12 10:30:29;;;;;;;5.30;1.63;;;28.80;1.00;;;;;;4961524;28;20211;-65
2023/07/12 10:33:03;;;;;;;3.30;1.25;;;28.90;99.90;;;;;;4970704;28;20642;-65
2023/07/12 10:35:41;;;;;;;2.08;1.10;;;28.80;99.90;;;;;;4957951;28;20200;-65
2023/07/12 10:38:14;;;;;;;4.18;1.63;;;28.90;99.90;;;;;;4970279;28;20199;-65
2023/07/12 10:40:50;;;;;;;3.42;1.50;;;29.40;1.00;;;;;;4949341;28;20573;-66
2023/07/12 10:43:27;;;;;;;2.97;1.30;;;29.20;21.90;;;;;;4971004;28;20210;-65
2023/07/12 10:46:02;;;;;;;2.35;1.20;;;28.90;1.00;;;;;;4960666;28;20199;-65
2023/07/12 10:48:32;;;;;;;5.90;1.38;;;28.80;99.90;;;;;;4964031;28;20546;-65
2023/07/12 10:51:20;;;;;;;3.45;1.50;;;27.70;4.40;;;;;;4966583;28;20204;-65
2023/07/12 10:53:50;;;;;;;3.70;1.30;;;27.50;99.90;;;;;;4956216;28;20287;-66
2023/07/12 10:56:24;;;;;;;1.88;1.38;;;27.70;1.00;;;;;;4959827;28;20232;-66
2023/07/12 10:58:57;;;;;;;3.90;1.48;;;27.80;76.20;;;;;;4963171;28;20200;-65
2023/07/12 11:01:54;;;;;;;2.33;1.60;;;28.10;1.00;;;;;;4956115;28;20212;-65
2023/07/12 11:04:33;;;;;;;3.50;1.50;;;27.60;99.90;;;;;;4965245;28;20655;-65
2023/07/12 11:07:44;;;;;;;5.60;1.50;;;26.50;1.00;;;;;;4955612;28;20196;-65
2023/07/12 11:10:23;;;;;;;3.50;1.50;;;25.60;99.90;;;;;;4961111;28;20290;-66
2023/07/12 11:12:56;;;;;;;1.93;1.40;;;25.00;99.90;;;;;;4959905;28;20214;-66
2023/07/12 11:15:27;;;;;;;4.47;1.25;;;25.50;1.00;;;;;;4966522;28;20207;-65
2023/07/12 11:18:03;;;;;;;2.10;1.20;;;26.30;99.90;;;;;;4972259;28;20260;-66
2023/07/12 11:20:35;;;;;;;3.10;1.40;;;27.00;1.00;;;;;;4957973;28;20258;-65
2023/07/12 11:23:29;;;;;;;4.55;1.17;;;27.30;99.90;;;;;;4946261;28;20213;-65
2023/07/12 11:26:03;;;;;;;3.08;1.38;;;27.10;1.00;;;;;;4966932;28;20209;-65
2023/07/12 11:28:49;;;;;;;1.02;1.00;;;27.10;99.90;;;;;;4974250;28;20214;-65
2023/07/12 11:31:31;;;;;;;2.35;1.45;;;26.90;1.00;;;;;;4960415;28;20211;-66
2023/07/12 11:34:11;;;;;;;2.72;1.20;;;26.80;1.00;;;;;;4965814;28;20206;-65
2023/07/12 11:36:39;;;;;;;3.20;1.40;;;26.20;1.00;;;;;;4971644;28;20198;-65
2023/07/12 11:39:17;;;;;;;1.30;1.20;;;26.20;1.00;;;;;;4973628;28;20215;-65
2023/07/12 11:41:54;;;;;;;3.93;1.60;;;26.10;1.00;;;;;;4973032;28;20832;-64
2023/07/12 11:44:25;;;;;;;2.97;1.50;;;25.80;1.00;;;;;;4967934;28;20208;-66
2023/07/12 11:46:56;;;;;;;2.57;1.27;;;25.70;1.00;;;;;;4958134;28;20192;-64
2023/07/12 11:49:31;;;;;;;3.97;1.50;;;26.20;99.90;;;;;;4940061;28;20200;-64
2023/07/12 11:52:04;;;;;;;2.30;1.10;;;26.50;99.90;;;;;;4960133;28;20198;-64
2023/07/12 11:54:37;;;;;;;2.93;1.40;;;26.60;1.00;;;;;;4962104;28;20351;-65
2023/07/12 11:57:12;;;;;;;1.53;1.40;;;26.60;1.00;;;;;;4958589;28;20189;-65
2023/07/12 11:59:42;;;;;;;4.80;1.43;;;26.60;99.90;;;;;;4960083;28;20214;-65
2023/07/12 12:02:15;;;;;;;4.33;1.23;;;26.10;1.00;;;;;;4944771;28;20593;-64
2023/07/12 12:04:47;;;;;;;2.10;1.23;;;25.70;1.00;;;;;;4961783;28;20639;-64
2023/07/12 12:07:22;;;;;;;2.03;1.40;;;25.80;99.90;;;;;;4956203;28;20207;-66
2023/07/12 12:09:51;;;;;;;3.83;1.43;;;26.20;1.00;;;;;;4958416;28;20657;-65
2023/07/12 12:12:28;;;;;;;3.70;1.20;;;25.90;99.90;;;;;;4956360;28;20204;-65
2023/07/12 12:14:56;;;;;;;1.13;1.10;;;25.40;1.00;;;;;;4959448;28;20199;-63
2023/07/12 12:17:31;;;;;;;1.47;1.37;;;25.10;1.00;;;;;;4973771;28;20192;-65
2023/07/12 12:20:05;;;;;;;3.20;1.20;;;24.90;99.90;;;;;;4959479;28;20188;-65
2023/07/12 12:22:34;;;;;;;3.27;1.27;;;25.20;1.00;;;;;;4965094;28;20196;-64
2023/07/12 12:25:02;;;;;;;1.40;1.30;;;25.20;99.90;;;;;;4974063;28;20222;-64
2023/07/12 12:27:37;;;;;;;1.57;1.13;;;25.20;88.30;;;;;;4959266;28;20319;-65
2023/07/12 12:30:19;;;;;;;4.17;1.37;;;25.00;1.00;;;;;;4955927;28;20200;-64
2023/07/12 12:33:04;;;;;;;2.70;1.40;;;24.70;1.00;;;;;;4955006;28;20227;-64
2023/07/12 12:35:46;;;;;;;3.03;1.20;;;25.00;99.90;;;;;;4967645;28;20651;-65
2023/07/12 12:38:20;;;;;;;4.97;1.40;;;25.30;1.00;;;;;;4962786;28;20192;-65
2023/07/12 12:40:56;;;;;;;2.97;1.20;;;25.70;1.00;;;;;;4960567;28;20222;-65
2023/07/12 12:43:25;;;;;;;4.83;1.53;;;25.80;6.00;;;;;;4959089;28;20659;-65
2023/07/12 12:45:55;;;;;;;1.07;1.00;;;25.50;99.90;;;;;;4955168;28;20219;-65
2023/07/12 12:48:35;;;;;;;6.70;1.67;;;25.50;99.90;;;;;;4955492;28;20203;-64
2023/07/12 12:51:07;;;;;;;5.33;1.50;;;25.20;1.00;;;;;;4965320;28;20207;-65
2023/07/12 12:53:57;;;;;;;3.40;1.30;;;25.10;99.90;;;;;;4970670;28;20183;-65
2023/07/12 12:56:36;;;;;;;1.90;1.30;;;25.20;99.90;;;;;;4960985;28;20204;-65
2023/07/12 12:59:10;;;;;;;3.07;1.60;;;25.50;99.90;;;;;;4966152;28;20195;-66
2023/07/12 13:01:42;;;;;;;3.43;1.30;;;25.80;99.90;;;;;;4960008;28;20215;-65
2023/07/12 13:04:32;;;;;;;3.60;1.37;;;26.10;1.00;;;;;;4968077;28;20263;-64
2023/07/12 13:07:04;;;;;;;1.93;1.23;;;26.20;8.10;;;;;;4945289;28;20212;-64
2023/07/12 13:09:37;;;;;;;3.60;1.10;;;26.00;1.00;;;;;;4969927;28;20199;-65